createdAt,value
2023-02-05T00:02:26.087Z,100284.23
2023-02-05T00:04:54.861Z,100281.02
2023-02-05T00:07:23.841Z,100282.91
2023-02-05T00:09:52.432Z,100283.58
2023-02-05T00:12:22.855Z,100285.48
2023-02-05T00:14:52.602Z,100283.88
2023-02-05T00:17:21.131Z,100290.02
2023-02-05T00:19:49.772Z,100291.10
2023-02-05T00:22:18.309Z,100288.11
2023-02-05T00:24:46.812Z,100282.27
2023-02-05T00:27:15.181Z,100282.77
2023-02-05T00:29:44.172Z,100287.63
2023-02-05T00:32:13.715Z,100286.90
2023-02-05T00:34:42.660Z,100286.32
2023-02-05T00:37:12.943Z,100280.47
2023-02-05T00:39:41.925Z,100279.19
2023-02-05T00:42:11.665Z,100279.00
2023-02-05T00:44:40.968Z,100285.32
2023-02-05T00:47:09.490Z,100284.60
2023-02-05T00:49:38.542Z,100285.13
2023-02-05T00:52:06.974Z,100286.70
2023-02-05T00:54:35.358Z,100286.90
2023-02-05T00:57:05.645Z,100286.88
2023-02-05T00:59:37.274Z,100287.36
2023-02-05T01:02:05.621Z,100286.92
2023-02-05T01:04:35.540Z,100286.67
2023-02-05T01:07:05.556Z,100290.87
2023-02-05T01:09:34.247Z,100291.04
2023-02-05T01:12:02.723Z,100288.56
2023-02-05T01:14:31.555Z,100290.66
2023-02-05T01:17:00.198Z,100288.02
2023-02-05T01:19:28.584Z,100286.05
2023-02-05T01:21:57.625Z,100286.73
2023-02-05T01:24:26.501Z,100283.16
2023-02-05T01:26:56.436Z,100280.52
2023-02-05T01:29:27.867Z,100281.90
2023-02-05T01:31:57.896Z,100278.36
2023-02-05T01:34:28.816Z,100284.17
2023-02-05T01:37:00.477Z,100289.84
2023-02-05T01:39:31.209Z,100286.39
2023-02-05T01:42:02.063Z,100287.48
2023-02-05T01:44:31.875Z,100284.32
2023-02-05T01:47:00.382Z,100287.67
2023-02-05T01:49:41.036Z,100290.48
2023-02-05T01:52:12.304Z,100292.92
2023-02-05T01:54:43.032Z,100288.10
2023-02-05T01:57:14.951Z,100289.45
2023-02-05T01:59:45.319Z,100295.60
2023-02-05T02:02:14.483Z,100295.75
2023-02-05T02:04:55.055Z,100296.10
2023-02-05T02:07:26.381Z,100295.34
2023-02-05T02:09:57.444Z,100293.78
2023-02-05T02:12:34.124Z,100290.31
2023-02-05T02:15:16.411Z,100292.10
2023-02-05T02:17:49.273Z,100287.34
2023-02-05T02:20:23.452Z,100290.88
2023-02-05T02:23:13.543Z,100292.74
2023-02-05T02:25:51.867Z,100290.94
2023-02-05T02:28:24.609Z,100293.93
2023-02-05T02:31:06.836Z,100292.67
2023-02-05T02:33:44.887Z,100291.27
2023-02-05T02:36:21.484Z,100291.46
2023-02-05T02:39:26.072Z,100291.11
2023-02-05T02:42:07.140Z,100292.02
2023-02-05T02:44:48.862Z,100297.65
2023-02-05T02:47:21.970Z,100302.75
2023-02-05T02:50:20.985Z,100305.55
2023-02-05T02:52:49.408Z,100297.31
2023-02-05T02:55:18.109Z,100298.73
2023-02-05T02:57:49.156Z,100302.66
2023-02-05T03:00:21.652Z,100303.92
2023-02-05T03:02:54.563Z,100308.23
2023-02-05T03:05:24.510Z,100316.36
2023-02-05T03:07:56.801Z,100313.17
2023-02-05T03:10:49.459Z,100311.78
2023-02-05T03:13:20.236Z,100306.13
2023-02-05T03:15:54.008Z,100312.46
2023-02-05T03:18:26.115Z,100318.13
2023-02-05T03:20:57.589Z,100318.84
2023-02-05T03:23:29.145Z,100322.38
2023-02-05T03:26:01.157Z,100320.06
2023-02-05T03:28:38.401Z,100319.29
2023-02-05T03:31:19.112Z,100324.41
2023-02-05T03:34:00.362Z,100323.66
2023-02-05T03:36:39.668Z,100324.69
2023-02-05T03:39:33.884Z,100320.33
2023-02-05T03:42:44.025Z,100320.14
2023-02-05T03:45:37.144Z,100321.31
2023-02-05T03:48:20.816Z,100324.59
2023-02-05T03:51:28.970Z,100319.77
2023-02-05T03:54:18.257Z,100317.26
2023-02-05T03:57:08.418Z,100322.32
2023-02-05T03:59:37.479Z,100321.80
2023-02-05T04:02:07.175Z,100321.44
2023-02-05T04:04:44.949Z,100320.77
2023-02-05T04:07:15.204Z,100319.43
2023-02-05T04:09:45.229Z,100319.45
2023-02-05T04:12:15.360Z,100324.53
2023-02-05T04:14:44.141Z,100326.79
2023-02-05T04:17:13.602Z,100334.02
2023-02-05T04:19:42.342Z,100337.34
2023-02-05T04:22:11.486Z,100331.68
2023-02-05T04:24:44.626Z,100334.91
2023-02-05T04:27:18.074Z,100328.77
2023-02-05T04:29:48.586Z,100326.63
2023-02-05T04:32:17.428Z,100326.77
2023-02-05T04:34:46.830Z,100325.91
2023-02-05T04:37:15.509Z,100325.77
2023-02-05T04:39:44.776Z,100324.56
2023-02-05T04:42:15.721Z,100324.56
2023-02-05T04:44:44.268Z,100331.28
2023-02-05T04:47:13.853Z,100331.33
2023-02-05T04:49:42.273Z,100337.09
2023-02-05T04:52:13.224Z,100337.65
2023-02-05T04:54:41.964Z,100341.69
2023-02-05T04:57:10.376Z,100342.53
2023-02-05T04:59:38.760Z,100349.41
2023-02-05T05:02:09.665Z,100351.02
2023-02-05T05:04:43.122Z,100350.36
2023-02-05T05:07:11.844Z,100352.48
2023-02-05T05:09:41.638Z,100353.67
2023-02-05T05:12:10.249Z,100359.12
2023-02-05T05:14:39.333Z,100357.35
2023-02-05T05:17:08.572Z,100355.05
2023-02-05T05:19:37.059Z,100359.13
2023-02-05T05:22:07.078Z,100359.98
2023-02-05T05:24:36.224Z,100358.91
2023-02-05T05:27:05.212Z,100360.98
2023-02-05T05:29:36.073Z,100362.35
2023-02-05T05:32:04.824Z,100366.02
2023-02-05T05:34:33.141Z,100366.18
2023-02-05T05:37:02.678Z,100367.24
2023-02-05T05:39:50.254Z,100372.87
2023-02-05T05:42:40.088Z,100376.53
2023-02-05T05:45:17.569Z,100376.67
2023-02-05T05:47:47.025Z,100382.59
2023-02-05T05:50:19.727Z,100384.23
2023-02-05T05:52:50.396Z,100384.56
2023-02-05T05:55:23.893Z,100388.08
2023-02-05T05:57:53.034Z,100394.39
2023-02-05T06:00:22.008Z,100400.50
2023-02-05T06:02:50.534Z,100406.50
2023-02-05T06:05:19.200Z,100404.23
2023-02-05T06:07:50.331Z,100402.64
2023-02-05T06:10:23.295Z,100399.07
2023-02-05T06:12:56.808Z,100400.23
2023-02-05T06:15:27.982Z,100410.92
2023-02-05T06:17:57.072Z,100410.73
2023-02-05T06:20:26.679Z,100414.39
2023-02-05T06:22:56.888Z,100416.98
2023-02-05T06:25:27.664Z,100411.29
2023-02-05T06:27:57.420Z,100415.99
2023-02-05T06:30:27.819Z,100414.04
2023-02-05T06:32:56.190Z,100417.39
2023-02-05T06:35:26.958Z,100420.16
2023-02-05T06:37:56.727Z,100420.98
2023-02-05T06:40:28.389Z,100427.07
2023-02-05T06:43:01.005Z,100430.52
2023-02-05T06:45:34.069Z,100429.38
2023-02-05T06:48:04.140Z,100432.65
2023-02-05T06:50:36.859Z,100436.45
2023-02-05T06:53:07.477Z,100434.38
2023-02-05T06:55:39.507Z,100432.04
2023-02-05T06:58:12.489Z,100435.54
2023-02-05T07:00:43.424Z,100436.16
2023-02-05T07:03:13.747Z,100436.71
2023-02-05T07:05:42.771Z,100436.67
2023-02-05T07:08:11.773Z,100435.38
2023-02-05T07:10:40.744Z,100436.72
2023-02-05T07:13:10.277Z,100436.77
2023-02-05T07:15:42.518Z,100440.65
2023-02-05T07:18:20.439Z,100444.47
2023-02-05T07:20:50.012Z,100446.17
2023-02-05T07:23:20.592Z,100447.09
2023-02-05T07:25:50.661Z,100450.25
2023-02-05T07:28:21.844Z,100454.95
2023-02-05T07:30:53.141Z,100462.63
2023-02-05T07:33:22.257Z,100458.79
2023-02-05T07:35:50.959Z,100459.42
2023-02-05T07:38:25.152Z,100461.35
2023-02-05T07:40:53.749Z,100458.48
2023-02-05T07:43:22.742Z,100457.56
2023-02-05T07:46:02.759Z,100456.88
2023-02-05T07:48:32.499Z,100454.91
2023-02-05T07:51:04.363Z,100457.13
2023-02-05T07:53:34.761Z,100457.46
2023-02-05T07:56:09.861Z,100458.06
2023-02-05T07:58:41.818Z,100467.75
2023-02-05T08:01:12.727Z,100470.67
2023-02-05T08:03:43.755Z,100474.24
2023-02-05T08:06:15.709Z,100472.73
2023-02-05T08:08:44.642Z,100469.30
2023-02-05T08:11:23.090Z,100479.19
2023-02-05T08:13:57.213Z,100480.52
2023-02-05T08:16:26.929Z,100481.98
2023-02-05T08:19:01.257Z,100485.70
2023-02-05T08:21:30.549Z,100488.52
2023-02-05T08:24:01.407Z,100490.49
2023-02-05T08:26:34.276Z,100491.58
2023-02-05T08:29:04.410Z,100496.15
2023-02-05T08:31:36.946Z,100499.85
2023-02-05T08:34:07.624Z,100503.34
2023-02-05T08:36:37.513Z,100507.81
2023-02-05T08:39:07.833Z,100511.36
2023-02-05T08:41:40.709Z,100514.24
2023-02-05T08:44:14.046Z,100512.56
2023-02-05T08:46:50.538Z,100515.40
2023-02-05T08:49:20.843Z,100516.88
2023-02-05T08:51:58.605Z,100517.75
2023-02-05T08:54:38.000Z,100514.05
2023-02-05T08:57:07.231Z,100518.16
2023-02-05T08:59:36.786Z,100519.61
2023-02-05T09:02:07.065Z,100519.87
2023-02-05T09:04:36.025Z,100521.88
2023-02-05T09:07:12.028Z,100523.91
2023-02-05T09:09:41.029Z,100524.06
2023-02-05T09:12:15.860Z,100527.57
2023-02-05T09:14:46.472Z,100529.81
2023-02-05T09:17:18.302Z,100531.52
2023-02-05T09:19:54.120Z,100530.73
2023-02-05T09:22:24.568Z,100532.61
2023-02-05T09:24:56.190Z,100531.88
2023-02-05T09:27:31.113Z,100534.34
2023-02-05T09:30:00.028Z,100538.73
2023-02-05T09:32:30.360Z,100536.81
2023-02-05T09:35:05.709Z,100537.21
2023-02-05T09:37:51.678Z,100531.42
2023-02-05T09:40:29.977Z,100531.04
2023-02-05T09:43:25.687Z,100529.41
2023-02-05T09:46:49.342Z,100533.02
2023-02-05T09:49:35.554Z,100528.49
2023-02-05T09:52:30.667Z,100528.70
2023-02-05T09:55:04.728Z,100528.68
2023-02-05T09:57:38.995Z,100527.33
2023-02-05T10:00:50.218Z,100523.01
2023-02-05T10:03:29.908Z,100519.70
2023-02-05T10:06:35.302Z,100521.23
2023-02-05T10:09:48.693Z,100522.09
2023-02-05T10:12:22.871Z,100521.30
2023-02-05T10:15:08.675Z,100523.05
2023-02-05T10:17:56.668Z,100526.66
2023-02-05T10:20:33.190Z,100527.55
2023-02-05T10:23:40.512Z,100531.91
2023-02-05T10:26:23.742Z,100533.83
2023-02-05T10:29:12.523Z,100535.97
2023-02-05T10:31:56.199Z,100539.89
2023-02-05T10:34:58.374Z,100541.95
2023-02-05T10:37:50.380Z,100546.55
2023-02-05T10:40:44.302Z,100553.61
2023-02-05T10:43:27.592Z,100556.24
2023-02-05T10:46:01.042Z,100560.17
2023-02-05T10:49:06.474Z,100558.11
2023-02-05T10:51:48.359Z,100555.73
2023-02-05T10:54:33.489Z,100562.38
2023-02-05T10:57:16.210Z,100564.07
2023-02-05T10:59:54.358Z,100564.38
2023-02-05T11:02:32.338Z,100569.44
2023-02-05T11:05:33.097Z,100568.77
2023-02-05T11:08:13.558Z,100573.40
2023-02-05T11:10:50.559Z,100577.73
2023-02-05T11:13:24.272Z,100578.70
2023-02-05T11:15:59.423Z,100588.21
2023-02-05T11:18:38.923Z,100590.52
2023-02-05T11:21:10.438Z,100589.67
2023-02-05T11:23:43.797Z,100585.68
2023-02-05T11:26:23.326Z,100588.18
2023-02-05T11:28:55.084Z,100586.05
2023-02-05T11:31:47.165Z,100587.27
2023-02-05T11:34:51.485Z,100585.11
2023-02-05T11:37:20.936Z,100588.58
2023-02-05T11:39:55.104Z,100589.34
2023-02-05T11:42:27.180Z,100592.20
2023-02-05T11:45:03.240Z,100591.23
2023-02-05T11:47:34.398Z,100594.13
2023-02-05T11:50:07.804Z,100593.80
2023-02-05T11:53:00.509Z,100595.48
2023-02-05T11:55:40.111Z,100595.22
2023-02-05T11:58:47.383Z,100601.44
2023-02-05T12:01:26.068Z,100601.84
2023-02-05T12:04:16.316Z,100602.38
2023-02-05T12:06:59.919Z,100606.97
2023-02-05T12:09:29.892Z,100609.11
2023-02-05T12:12:29.513Z,100614.27
2023-02-05T12:15:28.446Z,100621.52
2023-02-05T12:18:36.065Z,100622.28
2023-02-05T12:21:52.299Z,100618.11
2023-02-05T12:24:54.182Z,100616.15
2023-02-05T12:28:03.433Z,100617.50
2023-02-05T12:30:47.023Z,100619.35
2023-02-05T12:33:46.202Z,100618.79
2023-02-05T12:36:40.902Z,100621.95
2023-02-05T12:39:53.931Z,100618.46
2023-02-05T12:42:37.147Z,100625.00
2023-02-05T12:45:42.011Z,100624.48
2023-02-05T12:48:43.572Z,100621.70
2023-02-05T12:51:17.728Z,100621.81
2023-02-05T12:54:25.550Z,100620.69
2023-02-05T12:57:19.866Z,100621.18
2023-02-05T12:59:59.877Z,100626.04
2023-02-05T13:02:35.970Z,100625.91
2023-02-05T13:05:46.620Z,100628.70
2023-02-05T13:08:42.740Z,100635.88
2023-02-05T13:11:37.160Z,100625.45
2023-02-05T13:14:13.237Z,100628.59
2023-02-05T13:17:00.551Z,100631.80
2023-02-05T13:19:41.741Z,100631.55
2023-02-05T13:22:47.086Z,100629.53
2023-02-05T13:25:38.278Z,100628.41
2023-02-05T13:28:41.718Z,100632.19
2023-02-05T13:31:24.427Z,100639.69
2023-02-05T13:34:04.359Z,100639.50
2023-02-05T13:37:27.106Z,100647.34
2023-02-05T13:40:53.196Z,100645.39
2023-02-05T13:43:30.520Z,100649.83
2023-02-05T13:46:33.288Z,100654.46
2023-02-05T13:49:40.581Z,100653.11
2023-02-05T13:52:49.375Z,100660.26
2023-02-05T13:56:02.324Z,100659.75
2023-02-05T13:58:49.840Z,100666.81
2023-02-05T14:01:26.499Z,100671.36
2023-02-05T14:04:07.023Z,100673.65
2023-02-05T14:06:43.467Z,100674.73
2023-02-05T14:09:44.231Z,100680.23
2023-02-05T14:12:22.802Z,100686.00
2023-02-05T14:15:38.158Z,100685.85
2023-02-05T14:18:13.612Z,100687.04
2023-02-05T14:20:45.849Z,100689.83
2023-02-05T14:23:38.992Z,100686.41
2023-02-05T14:26:11.880Z,100692.14
2023-02-05T14:28:45.443Z,100694.48
2023-02-05T14:31:48.642Z,100698.96
2023-02-05T14:34:49.684Z,100707.20
2023-02-05T14:37:41.157Z,100710.27
2023-02-05T14:40:15.111Z,100714.72
2023-02-05T14:42:48.724Z,100718.15
2023-02-05T14:45:24.979Z,100718.95
2023-02-05T14:48:01.549Z,100723.19
2023-02-05T14:50:33.935Z,100723.94
2023-02-05T14:53:23.875Z,100728.98
2023-02-05T14:55:56.922Z,100730.13
2023-02-05T14:58:36.650Z,100731.39
2023-02-05T15:01:34.181Z,100729.60
2023-02-05T15:04:19.170Z,100730.54
2023-02-05T15:06:54.615Z,100732.10
2023-02-05T15:09:42.981Z,100736.52
2023-02-05T15:12:45.925Z,100744.86
2023-02-05T15:15:38.144Z,100748.91
2023-02-05T15:18:45.154Z,100751.94
2023-02-05T15:21:35.224Z,100751.09
2023-02-05T15:24:20.050Z,100755.54
2023-02-05T15:27:15.457Z,100756.59
2023-02-05T15:29:58.641Z,100761.17
2023-02-05T15:32:49.249Z,100756.75
2023-02-05T15:35:22.640Z,100762.28
2023-02-05T15:38:24.567Z,100761.63
2023-02-05T15:40:59.150Z,100767.19
2023-02-05T15:43:28.930Z,100766.13
2023-02-05T15:46:13.373Z,100769.80
2023-02-05T15:48:47.114Z,100768.36
2023-02-05T15:51:27.429Z,100772.05
2023-02-05T15:54:00.857Z,100773.92
2023-02-05T15:56:37.840Z,100775.33
2023-02-05T15:59:24.996Z,100773.62
2023-02-05T16:02:21.278Z,100777.55
2023-02-05T16:05:26.367Z,100785.66
2023-02-05T16:07:59.207Z,100789.88
2023-02-05T16:10:34.391Z,100799.80
2023-02-05T16:13:18.500Z,100801.17
2023-02-05T16:16:09.551Z,100804.71
2023-02-05T16:18:49.693Z,100811.81
2023-02-05T16:21:44.557Z,100813.29
2023-02-05T16:24:30.391Z,100822.54
2023-02-05T16:27:44.711Z,100823.56
2023-02-05T16:30:33.251Z,100829.73
2023-02-05T16:33:03.520Z,100831.65
2023-02-05T16:35:47.233Z,100838.58
2023-02-05T16:38:25.323Z,100838.03
2023-02-05T16:41:10.897Z,100845.30
2023-02-05T16:43:44.023Z,100843.77
2023-02-05T16:46:16.247Z,100844.14
2023-02-05T16:48:47.189Z,100844.14
2023-02-05T16:51:37.556Z,100848.59
2023-02-05T16:54:13.039Z,100853.60
2023-02-05T16:57:14.801Z,100856.26
2023-02-05T17:00:00.532Z,100859.61
2023-02-05T17:02:48.214Z,100867.09
2023-02-05T17:05:46.395Z,100877.81
2023-02-05T17:08:20.707Z,100879.84
2023-02-05T17:10:58.264Z,100887.16
2023-02-05T17:13:46.059Z,100894.33
2023-02-05T17:16:30.950Z,100890.75
2023-02-05T17:19:32.812Z,100898.81
2023-02-05T17:22:25.631Z,100901.71
2023-02-05T17:25:02.725Z,100909.48
2023-02-05T17:27:37.272Z,100913.54
2023-02-05T17:30:12.172Z,100915.50
2023-02-05T17:33:14.605Z,100916.02
2023-02-05T17:35:48.202Z,100920.64
2023-02-05T17:38:18.723Z,100923.32
2023-02-05T17:40:53.667Z,100927.05
2023-02-05T17:43:23.470Z,100922.46
2023-02-05T17:46:02.341Z,100925.84
2023-02-05T17:48:31.160Z,100925.17
2023-02-05T17:51:10.447Z,100925.73
2023-02-05T17:53:50.674Z,100921.66
2023-02-05T17:56:22.677Z,100923.23
2023-02-05T17:59:03.557Z,100925.48
2023-02-05T18:01:41.079Z,100928.84
2023-02-05T18:04:31.276Z,100931.46
2023-02-05T18:07:32.593Z,100935.34
2023-02-05T18:10:12.151Z,100936.73
2023-02-05T18:13:16.088Z,100941.48
2023-02-05T18:16:03.943Z,100941.47
2023-02-05T18:21:56.435Z,100947.70
2023-02-05T18:24:31.167Z,100950.55
2023-02-05T18:30:38.928Z,100957.96
2023-02-05T18:33:15.949Z,100958.32
2023-02-05T18:35:50.748Z,100965.58
2023-02-05T18:38:24.741Z,100963.47
2023-02-05T18:41:03.034Z,100968.42
2023-02-05T18:43:37.327Z,100971.63
2023-02-05T18:46:24.162Z,100970.57
2023-02-05T18:48:55.550Z,100972.52
2023-02-05T18:51:28.734Z,100967.23
2023-02-05T18:54:12.364Z,100968.81
2023-02-05T18:57:03.075Z,100968.27
2023-02-05T18:59:36.750Z,100971.45
2023-02-05T19:02:19.402Z,100971.64
2023-02-05T19:05:04.213Z,100973.63
2023-02-05T19:07:40.464Z,100976.41
2023-02-05T19:10:23.483Z,100976.34
2023-02-05T19:13:01.772Z,100978.59
2023-02-05T19:15:46.989Z,100981.75
2023-02-05T19:18:24.248Z,100982.27
2023-02-05T19:21:22.038Z,100990.91
2023-02-05T19:24:12.948Z,100992.52
2023-02-05T19:26:50.009Z,100999.09
2023-02-05T19:29:25.185Z,101002.27
2023-02-05T19:31:57.456Z,100999.10
2023-02-05T19:34:35.070Z,101002.05
2023-02-05T19:37:05.030Z,101008.05
2023-02-05T19:39:43.798Z,101011.94
2023-02-05T19:42:17.351Z,101013.70
2023-02-05T19:44:46.452Z,101015.10
2023-02-05T19:47:22.966Z,101012.43
2023-02-05T19:49:59.830Z,101019.47
2023-02-05T19:52:28.898Z,101020.72
2023-02-05T19:55:17.034Z,101026.05
2023-02-05T19:57:48.283Z,101031.02
2023-02-05T20:00:17.791Z,101028.73
2023-02-05T20:02:54.399Z,101031.38
2023-02-05T20:05:25.596Z,101037.71
2023-02-05T20:08:06.267Z,101041.73
2023-02-05T20:10:38.063Z,101043.85
2023-02-05T20:13:15.826Z,101043.88
2023-02-05T20:15:46.920Z,101047.04
2023-02-05T20:18:20.714Z,101052.34
2023-02-05T20:24:33.199Z,101055.02
2023-02-05T20:27:06.798Z,101055.73
2023-02-05T20:29:57.054Z,101055.73
2023-02-05T20:32:26.999Z,101056.41
2023-02-05T20:34:56.715Z,101059.23
2023-02-05T20:37:26.553Z,101064.35
2023-02-05T20:39:56.822Z,101066.64
2023-02-05T20:42:28.605Z,101068.96
2023-02-05T20:44:59.684Z,101072.68
2023-02-05T20:47:33.207Z,101076.05
2023-02-05T20:50:04.660Z,101077.14
2023-02-05T20:52:37.491Z,101076.13
2023-02-05T20:55:06.662Z,101077.56
2023-02-05T20:57:46.988Z,101084.48
2023-02-05T21:00:20.032Z,101086.81
2023-02-05T21:02:49.226Z,101091.21
2023-02-05T21:05:35.735Z,101095.46
2023-02-05T21:08:15.000Z,101093.02
2023-02-05T21:10:48.461Z,101100.25
2023-02-05T21:13:44.483Z,101104.33
2023-02-05T21:16:28.173Z,101105.75
2023-02-05T21:19:23.637Z,101107.75
2023-02-05T21:22:00.633Z,101114.48
2023-02-05T21:24:31.926Z,101110.80
2023-02-05T21:27:28.996Z,101119.13
2023-02-05T21:30:12.254Z,101119.50
2023-02-05T21:32:41.079Z,101120.77
2023-02-05T21:35:13.061Z,101119.38
2023-02-05T21:37:45.116Z,101117.24
2023-02-05T21:40:16.108Z,101118.98
2023-02-05T21:42:47.001Z,101121.60
2023-02-05T21:45:15.533Z,101122.30
2023-02-05T21:47:47.898Z,101127.95
2023-02-05T21:50:17.765Z,101126.30
2023-02-05T21:52:53.052Z,101132.64
2023-02-05T21:55:29.023Z,101137.59
2023-02-05T21:57:57.923Z,101138.98
2023-02-05T22:00:33.415Z,101142.89
2023-02-05T22:03:04.390Z,101141.32
2023-02-05T22:05:33.876Z,101148.38
2023-02-05T22:08:06.040Z,101147.66
2023-02-05T22:10:37.411Z,101147.98
2023-02-05T22:13:10.206Z,101152.35
2023-02-05T22:15:38.925Z,101155.88
2023-02-05T22:18:08.555Z,101151.44
2023-02-05T22:20:39.169Z,101147.90
2023-02-05T22:23:08.880Z,101150.75
2023-02-05T22:25:46.438Z,101152.90
2023-02-05T22:28:16.165Z,101154.71
2023-02-05T22:30:45.241Z,101151.39
2023-02-05T22:33:15.280Z,101153.17
2023-02-05T22:35:45.559Z,101154.75
2023-02-05T22:38:14.864Z,101159.33
2023-02-05T22:40:45.625Z,101157.36
2023-02-05T22:43:18.889Z,101152.41
2023-02-05T22:45:51.595Z,101155.05
2023-02-05T22:48:23.740Z,101161.96
2023-02-05T22:51:21.732Z,101161.83
2023-02-05T22:53:58.298Z,101166.64
2023-02-05T22:56:36.785Z,101165.44
2023-02-05T22:59:05.135Z,101166.75
2023-02-05T23:01:38.695Z,101168.52
2023-02-05T23:04:14.084Z,101167.10
2023-02-05T23:06:50.819Z,101170.78
2023-02-05T23:09:24.110Z,101169.88
2023-02-05T23:11:56.367Z,101174.82
2023-02-05T23:14:28.159Z,101176.96
2023-02-05T23:17:03.493Z,101181.41
2023-02-05T23:19:33.796Z,101186.73
2023-02-05T23:22:10.020Z,101190.27
2023-02-05T23:24:40.121Z,101192.94
2023-02-05T23:27:13.883Z,101189.95
2023-02-05T23:29:46.223Z,101192.56
2023-02-05T23:32:44.130Z,101197.32
2023-02-05T23:35:15.152Z,101198.56
2023-02-05T23:37:45.121Z,101202.98
2023-02-05T23:40:20.726Z,101200.66
2023-02-05T23:42:49.341Z,101203.15
2023-02-05T23:45:18.760Z,101206.48
2023-02-05T23:47:54.492Z,101207.55
2023-02-05T23:50:24.221Z,101214.23
2023-02-05T23:53:00.524Z,101217.91
2023-02-05T23:55:31.353Z,101222.48
2023-02-05T23:58:00.973Z,101219.97
